KRWI/RWI METAR and TAF weather

Enter ICAO airport designator
Station Type Date Time Source
KRWI METAR 2019/07/20 04:53 UTC NOAA

KRWI 200453Z AUTO 21004KT 10SM FEW090 27/22 A3000 RMK AO2 SLP157 T02670217 403560222


Station Type Date Time Source
KRWI Decoded METAR 2019/07/20 04:53 UTC NOAA

ROCKY MOUNT-WILSON AIRPORT, NC, United States (KRWI) 35-51N 077-54W 47M
Jul 20, 2019 - 12:53 AM EDT / 2019.07.20 0453 UTC
Wind: from the SSW (210 degrees) at 5 MPH (4 KT):0
Visibility: 10 mile(s):0
Sky conditions: mostly clear
Temperature: 80.1 F (26.7 C)
Dew Point: 71.1 F (21.7 C)
Relative Humidity: 74%
Pressure (altimeter): 30 in. Hg (1015 hPa)
ob: KRWI 200453Z AUTO 21004KT 10SM FEW090 27/22 A3000 RMK AO2 SLP157 T02670217 403560222
cycle: 5

Station Type Date Time Source
KRWI TAF 2019/07/20 06:22 UTC NOAA

TAF KRWI 200520Z 2006/2106 23005KT P6SM SCT050 BKN200

Example: see airport list